sensor_id;sensor_type;location;lat;lon;timestamp;temperature;humidity
54429;DHT22;40337;52.978;6.310;2024-02-14T00:00:12;8.00;99.90
54429;DHT22;40337;52.978;6.310;2024-02-14T00:02:48;8.00;99.90
54429;DHT22;40337;52.978;6.310;2024-02-14T00:05:17;8.00;99.90
54429;DHT22;40337;52.978;6.310;2024-02-14T00:07:43;8.00;99.90
54429;DHT22;40337;52.978;6.310;2024-02-14T00:10:09;8.00;99.90
54429;DHT22;40337;52.978;6.310;2024-02-14T00:12:35;8.00;99.90
54429;DHT22;40337;52.978;6.310;2024-02-14T00:15:02;8.00;99.90
54429;DHT22;40337;52.978;6.310;2024-02-14T00:17:29;8.00;99.90
54429;DHT22;40337;52.978;6.310;2024-02-14T00:19:54;8.00;99.90
54429;DHT22;40337;52.978;6.310;2024-02-14T00:22:21;8.00;99.90
54429;DHT22;40337;52.978;6.310;2024-02-14T00:24:46;8.10;99.90
54429;DHT22;40337;52.978;6.310;2024-02-14T00:27:13;8.10;99.90
54429;DHT22;40337;52.978;6.310;2024-02-14T00:29:43;8.10;99.90
54429;DHT22;40337;52.978;6.310;2024-02-14T00:32:11;8.10;99.90
54429;DHT22;40337;52.978;6.310;2024-02-14T00:34:37;8.10;99.90
54429;DHT22;40337;52.978;6.310;2024-02-14T00:37:03;8.10;99.90
54429;DHT22;40337;52.978;6.310;2024-02-14T00:39:29;8.10;99.90
54429;DHT22;40337;52.978;6.310;2024-02-14T00:41:54;8.10;99.90
54429;DHT22;40337;52.978;6.310;2024-02-14T00:44:21;8.10;99.90
54429;DHT22;40337;52.978;6.310;2024-02-14T00:46:47;8.10;99.90
54429;DHT22;40337;52.978;6.310;2024-02-14T00:49:14;8.20;99.90
54429;DHT22;40337;52.978;6.310;2024-02-14T00:51:39;8.20;99.90
54429;DHT22;40337;52.978;6.310;2024-02-14T00:54:06;8.20;99.90
54429;DHT22;40337;52.978;6.310;2024-02-14T00:56:32;8.20;99.90
54429;DHT22;40337;52.978;6.310;2024-02-14T00:58:57;8.20;99.90
54429;DHT22;40337;52.978;6.310;2024-02-14T01:01:23;8.30;99.90
54429;DHT22;40337;52.978;6.310;2024-02-14T01:03:49;8.30;99.90
54429;DHT22;40337;52.978;6.310;2024-02-14T01:06:15;8.30;99.90
54429;DHT22;40337;52.978;6.310;2024-02-14T01:08:44;8.30;99.90
54429;DHT22;40337;52.978;6.310;2024-02-14T01:11:10;8.30;99.90
54429;DHT22;40337;52.978;6.310;2024-02-14T01:13:35;8.30;99.90
54429;DHT22;40337;52.978;6.310;2024-02-14T01:16:03;8.40;99.90
54429;DHT22;40337;52.978;6.310;2024-02-14T01:18:30;8.40;99.90
54429;DHT22;40337;52.978;6.310;2024-02-14T01:20:55;8.40;99.90
54429;DHT22;40337;52.978;6.310;2024-02-14T01:23:21;8.40;99.90
54429;DHT22;40337;52.978;6.310;2024-02-14T01:25:47;8.50;99.90
54429;DHT22;40337;52.978;6.310;2024-02-14T01:28:13;8.50;99.90
54429;DHT22;40337;52.978;6.310;2024-02-14T01:30:38;8.50;99.90
54429;DHT22;40337;52.978;6.310;2024-02-14T01:33:04;8.50;99.90
54429;DHT22;40337;52.978;6.310;2024-02-14T01:35:30;8.60;99.90
54429;DHT22;40337;52.978;6.310;2024-02-14T01:37:56;8.60;99.90
54429;DHT22;40337;52.978;6.310;2024-02-14T01:40:22;8.60;99.90
54429;DHT22;40337;52.978;6.310;2024-02-14T01:42:47;8.70;99.90
54429;DHT22;40337;52.978;6.310;2024-02-14T01:45:13;8.70;99.90
54429;DHT22;40337;52.978;6.310;2024-02-14T01:47:39;8.70;99.90
54429;DHT22;40337;52.978;6.310;2024-02-14T01:50:08;8.80;99.90
54429;DHT22;40337;52.978;6.310;2024-02-14T01:52:39;8.80;99.90
54429;DHT22;40337;52.978;6.310;2024-02-14T01:55:06;8.90;99.90
54429;DHT22;40337;52.978;6.310;2024-02-14T01:57:33;8.90;99.90
54429;DHT22;40337;52.978;6.310;2024-02-14T02:00:00;8.90;99.90
54429;DHT22;40337;52.978;6.310;2024-02-14T02:02:34;9.00;99.90
54429;DHT22;40337;52.978;6.310;2024-02-14T02:05:02;9.10;99.90
54429;DHT22;40337;52.978;6.310;2024-02-14T02:07:28;9.10;99.90
54429;DHT22;40337;52.978;6.310;2024-02-14T02:09:53;9.10;99.90
54429;DHT22;40337;52.978;6.310;2024-02-14T02:12:19;9.20;99.90
54429;DHT22;40337;52.978;6.310;2024-02-14T02:14:45;9.20;99.90
54429;DHT22;40337;52.978;6.310;2024-02-14T02:17:11;9.30;99.90
54429;DHT22;40337;52.978;6.310;2024-02-14T02:19:38;9.30;99.90
54429;DHT22;40337;52.978;6.310;2024-02-14T02:22:04;9.30;99.90
54429;DHT22;40337;52.978;6.310;2024-02-14T02:24:30;9.30;99.90
54429;DHT22;40337;52.978;6.310;2024-02-14T02:26:56;9.40;99.90
54429;DHT22;40337;52.978;6.310;2024-02-14T02:29:22;9.40;99.90
54429;DHT22;40337;52.978;6.310;2024-02-14T02:31:48;9.40;99.90
54429;DHT22;40337;52.978;6.310;2024-02-14T02:34:13;9.40;99.90
54429;DHT22;40337;52.978;6.310;2024-02-14T02:36:40;9.40;99.90
54429;DHT22;40337;52.978;6.310;2024-02-14T02:39:06;9.50;99.90
54429;DHT22;40337;52.978;6.310;2024-02-14T02:41:33;9.50;99.90
54429;DHT22;40337;52.978;6.310;2024-02-14T02:43:58;9.60;99.90
54429;DHT22;40337;52.978;6.310;2024-02-14T02:46:25;9.60;99.90
54429;DHT22;40337;52.978;6.310;2024-02-14T02:48:51;9.60;99.90
54429;DHT22;40337;52.978;6.310;2024-02-14T02:51:20;9.60;99.90
54429;DHT22;40337;52.978;6.310;2024-02-14T02:53:46;9.60;99.90
54429;DHT22;40337;52.978;6.310;2024-02-14T02:56:12;9.70;99.90
54429;DHT22;40337;52.978;6.310;2024-02-14T02:58:38;9.70;99.90
54429;DHT22;40337;52.978;6.310;2024-02-14T03:01:08;9.70;99.90
54429;DHT22;40337;52.978;6.310;2024-02-14T03:03:35;9.70;99.90
54429;DHT22;40337;52.978;6.310;2024-02-14T03:06:03;9.70;99.90
54429;DHT22;40337;52.978;6.310;2024-02-14T03:08:29;9.80;99.90
54429;DHT22;40337;52.978;6.310;2024-02-14T03:10:56;9.80;99.90
54429;DHT22;40337;52.978;6.310;2024-02-14T03:13:25;9.80;99.90
54429;DHT22;40337;52.978;6.310;2024-02-14T03:15:52;9.80;99.90
54429;DHT22;40337;52.978;6.310;2024-02-14T03:18:18;9.90;99.90
54429;DHT22;40337;52.978;6.310;2024-02-14T03:20:43;9.90;99.90
54429;DHT22;40337;52.978;6.310;2024-02-14T03:23:09;10.00;99.90
54429;DHT22;40337;52.978;6.310;2024-02-14T03:25:35;10.00;99.90
54429;DHT22;40337;52.978;6.310;2024-02-14T03:28:02;10.00;99.90
54429;DHT22;40337;52.978;6.310;2024-02-14T03:30:34;10.00;99.90
54429;DHT22;40337;52.978;6.310;2024-02-14T03:33:01;10.00;99.90
54429;DHT22;40337;52.978;6.310;2024-02-14T03:35:27;10.10;99.90
54429;DHT22;40337;52.978;6.310;2024-02-14T03:37:53;10.10;99.90
54429;DHT22;40337;52.978;6.310;2024-02-14T03:40:19;10.20;99.90
54429;DHT22;40337;52.978;6.310;2024-02-14T03:42:48;10.30;99.90
54429;DHT22;40337;52.978;6.310;2024-02-14T03:45:13;10.20;99.90
54429;DHT22;40337;52.978;6.310;2024-02-14T03:47:40;10.30;99.90
54429;DHT22;40337;52.978;6.310;2024-02-14T03:50:06;10.30;99.90
54429;DHT22;40337;52.978;6.310;2024-02-14T03:52:32;10.30;99.90
54429;DHT22;40337;52.978;6.310;2024-02-14T03:54:59;10.40;99.90
54429;DHT22;40337;52.978;6.310;2024-02-14T03:57:25;10.50;99.90
54429;DHT22;40337;52.978;6.310;2024-02-14T03:59:53;10.40;99.90
54429;DHT22;40337;52.978;6.310;2024-02-14T04:02:19;10.50;99.90
54429;DHT22;40337;52.978;6.310;2024-02-14T04:04:44;10.50;99.90
54429;DHT22;40337;52.978;6.310;2024-02-14T04:07:12;10.60;99.90
54429;DHT22;40337;52.978;6.310;2024-02-14T04:09:38;10.60;99.90
54429;DHT22;40337;52.978;6.310;2024-02-14T04:12:04;10.70;99.90
54429;DHT22;40337;52.978;6.310;2024-02-14T04:14:30;10.70;99.90
54429;DHT22;40337;52.978;6.310;2024-02-14T04:16:56;10.70;99.90
54429;DHT22;40337;52.978;6.310;2024-02-14T04:19:21;10.70;99.90
54429;DHT22;40337;52.978;6.310;2024-02-14T04:21:47;10.70;99.90
54429;DHT22;40337;52.978;6.310;2024-02-14T04:24:13;10.70;99.90
54429;DHT22;40337;52.978;6.310;2024-02-14T04:26:38;10.70;99.90
54429;DHT22;40337;52.978;6.310;2024-02-14T04:29:04;10.80;99.90
54429;DHT22;40337;52.978;6.310;2024-02-14T04:31:30;10.80;99.90
54429;DHT22;40337;52.978;6.310;2024-02-14T04:33:57;10.90;99.90
54429;DHT22;40337;52.978;6.310;2024-02-14T04:36:23;10.90;99.90
54429;DHT22;40337;52.978;6.310;2024-02-14T04:38:49;11.00;99.90
54429;DHT22;40337;52.978;6.310;2024-02-14T04:41:15;10.90;99.90
54429;DHT22;40337;52.978;6.310;2024-02-14T04:43:41;10.90;99.90
54429;DHT22;40337;52.978;6.310;2024-02-14T04:46:06;11.00;99.90
54429;DHT22;40337;52.978;6.310;2024-02-14T04:48:34;10.90;99.90
54429;DHT22;40337;52.978;6.310;2024-02-14T04:51:01;11.00;99.90
54429;DHT22;40337;52.978;6.310;2024-02-14T04:53:27;11.00;99.90
54429;DHT22;40337;52.978;6.310;2024-02-14T04:55:53;11.00;99.90
54429;DHT22;40337;52.978;6.310;2024-02-14T04:58:19;11.10;99.90
54429;DHT22;40337;52.978;6.310;2024-02-14T05:00:45;11.10;99.90
54429;DHT22;40337;52.978;6.310;2024-02-14T05:03:11;11.10;99.90
54429;DHT22;40337;52.978;6.310;2024-02-14T05:05:36;11.10;99.90
54429;DHT22;40337;52.978;6.310;2024-02-14T05:08:03;11.10;99.90
54429;DHT22;40337;52.978;6.310;2024-02-14T05:10:30;11.10;99.90
54429;DHT22;40337;52.978;6.310;2024-02-14T05:12:56;11.10;99.90
54429;DHT22;40337;52.978;6.310;2024-02-14T05:15:22;11.10;99.90
54429;DHT22;40337;52.978;6.310;2024-02-14T05:17:48;11.10;99.90
54429;DHT22;40337;52.978;6.310;2024-02-14T05:20:14;11.20;99.90
54429;DHT22;40337;52.978;6.310;2024-02-14T05:22:40;11.20;99.90
54429;DHT22;40337;52.978;6.310;2024-02-14T05:25:06;11.20;99.90
54429;DHT22;40337;52.978;6.310;2024-02-14T05:27:35;11.20;99.90
54429;DHT22;40337;52.978;6.310;2024-02-14T05:30:03;11.20;99.90
54429;DHT22;40337;52.978;6.310;2024-02-14T05:32:32;11.20;99.90
54429;DHT22;40337;52.978;6.310;2024-02-14T05:34:58;11.20;99.90
54429;DHT22;40337;52.978;6.310;2024-02-14T05:37:23;11.20;99.90
54429;DHT22;40337;52.978;6.310;2024-02-14T05:39:49;11.30;99.90
54429;DHT22;40337;52.978;6.310;2024-02-14T05:42:15;11.20;99.90
54429;DHT22;40337;52.978;6.310;2024-02-14T05:44:43;11.30;99.90
54429;DHT22;40337;52.978;6.310;2024-02-14T05:47:09;11.30;99.90
54429;DHT22;40337;52.978;6.310;2024-02-14T05:49:39;11.20;99.90
54429;DHT22;40337;52.978;6.310;2024-02-14T05:52:08;11.30;99.90
54429;DHT22;40337;52.978;6.310;2024-02-14T05:54:34;11.30;99.90
54429;DHT22;40337;52.978;6.310;2024-02-14T05:57:00;11.30;99.90
54429;DHT22;40337;52.978;6.310;2024-02-14T05:59:27;11.30;99.90
54429;DHT22;40337;52.978;6.310;2024-02-14T06:01:53;11.30;99.90
54429;DHT22;40337;52.978;6.310;2024-02-14T06:04:19;11.40;99.90
54429;DHT22;40337;52.978;6.310;2024-02-14T06:06:44;11.40;99.90
54429;DHT22;40337;52.978;6.310;2024-02-14T06:09:10;11.40;99.90
54429;DHT22;40337;52.978;6.310;2024-02-14T06:11:37;11.40;99.90
54429;DHT22;40337;52.978;6.310;2024-02-14T06:14:06;11.40;99.90
54429;DHT22;40337;52.978;6.310;2024-02-14T06:16:33;11.40;99.90
54429;DHT22;40337;52.978;6.310;2024-02-14T06:18:59;11.40;99.90
54429;DHT22;40337;52.978;6.310;2024-02-14T06:21:25;11.40;99.90
54429;DHT22;40337;52.978;6.310;2024-02-14T06:23:51;11.50;99.90
54429;DHT22;40337;52.978;6.310;2024-02-14T06:26:16;11.40;99.90
54429;DHT22;40337;52.978;6.310;2024-02-14T06:28:44;11.50;99.90
54429;DHT22;40337;52.978;6.310;2024-02-14T06:31:11;11.40;99.90
54429;DHT22;40337;52.978;6.310;2024-02-14T06:33:37;11.50;99.90
54429;DHT22;40337;52.978;6.310;2024-02-14T06:36:03;11.50;99.90
54429;DHT22;40337;52.978;6.310;2024-02-14T06:38:31;11.50;99.90
54429;DHT22;40337;52.978;6.310;2024-02-14T06:40:56;11.50;99.90
54429;DHT22;40337;52.978;6.310;2024-02-14T06:43:22;11.50;99.90
54429;DHT22;40337;52.978;6.310;2024-02-14T06:45:48;11.50;99.90
54429;DHT22;40337;52.978;6.310;2024-02-14T06:48:13;11.50;99.90
54429;DHT22;40337;52.978;6.310;2024-02-14T06:50:39;11.50;99.90
54429;DHT22;40337;52.978;6.310;2024-02-14T06:53:06;11.50;99.90
54429;DHT22;40337;52.978;6.310;2024-02-14T06:55:32;11.60;99.90
54429;DHT22;40337;52.978;6.310;2024-02-14T06:58:01;11.60;99.90
54429;DHT22;40337;52.978;6.310;2024-02-14T07:00:26;11.60;99.90
54429;DHT22;40337;52.978;6.310;2024-02-14T07:02:53;11.60;99.90
54429;DHT22;40337;52.978;6.310;2024-02-14T07:05:19;11.50;99.90
54429;DHT22;40337;52.978;6.310;2024-02-14T07:07:44;11.60;99.90
54429;DHT22;40337;52.978;6.310;2024-02-14T07:10:10;11.60;99.90
54429;DHT22;40337;52.978;6.310;2024-02-14T07:12:36;11.60;99.90
54429;DHT22;40337;52.978;6.310;2024-02-14T07:15:03;11.60;99.90
54429;DHT22;40337;52.978;6.310;2024-02-14T07:17:30;11.60;99.90
54429;DHT22;40337;52.978;6.310;2024-02-14T07:19:55;11.60;99.90
54429;DHT22;40337;52.978;6.310;2024-02-14T07:22:21;11.60;99.90
54429;DHT22;40337;52.978;6.310;2024-02-14T07:24:47;11.60;99.90
54429;DHT22;40337;52.978;6.310;2024-02-14T07:27:15;11.60;99.90
54429;DHT22;40337;52.978;6.310;2024-02-14T07:29:41;11.60;99.90
54429;DHT22;40337;52.978;6.310;2024-02-14T07:32:25;11.60;99.90
54429;DHT22;40337;52.978;6.310;2024-02-14T07:34:53;11.70;99.90
54429;DHT22;40337;52.978;6.310;2024-02-14T07:37:18;11.60;99.90
54429;DHT22;40337;52.978;6.310;2024-02-14T07:39:45;11.60;99.90
54429;DHT22;40337;52.978;6.310;2024-02-14T07:42:12;11.70;99.90
54429;DHT22;40337;52.978;6.310;2024-02-14T07:44:37;11.60;99.90
54429;DHT22;40337;52.978;6.310;2024-02-14T07:47:03;11.70;99.90
54429;DHT22;40337;52.978;6.310;2024-02-14T07:49:29;11.70;99.90
54429;DHT22;40337;52.978;6.310;2024-02-14T07:51:54;11.70;99.90
54429;DHT22;40337;52.978;6.310;2024-02-14T07:54:20;11.70;99.90
54429;DHT22;40337;52.978;6.310;2024-02-14T07:56:45;11.70;99.90
54429;DHT22;40337;52.978;6.310;2024-02-14T07:59:11;11.70;99.90
54429;DHT22;40337;52.978;6.310;2024-02-14T08:01:37;11.70;99.90
54429;DHT22;40337;52.978;6.310;2024-02-14T08:04:02;11.70;99.90
54429;DHT22;40337;52.978;6.310;2024-02-14T08:06:30;11.70;99.90
54429;DHT22;40337;52.978;6.310;2024-02-14T08:08:55;11.70;99.90
54429;DHT22;40337;52.978;6.310;2024-02-14T08:11:27;11.70;99.90
54429;DHT22;40337;52.978;6.310;2024-02-14T08:13:52;11.70;99.90
54429;DHT22;40337;52.978;6.310;2024-02-14T08:16:18;11.80;99.90
54429;DHT22;40337;52.978;6.310;2024-02-14T08:18:44;11.80;99.90
54429;DHT22;40337;52.978;6.310;2024-02-14T08:21:09;11.80;99.90
54429;DHT22;40337;52.978;6.310;2024-02-14T08:23:36;11.80;99.90
54429;DHT22;40337;52.978;6.310;2024-02-14T08:26:04;11.80;99.90
54429;DHT22;40337;52.978;6.310;2024-02-14T08:28:36;11.80;99.90
54429;DHT22;40337;52.978;6.310;2024-02-14T08:31:02;11.80;99.90
54429;DHT22;40337;52.978;6.310;2024-02-14T08:33:28;11.80;99.90
54429;DHT22;40337;52.978;6.310;2024-02-14T08:35:54;11.80;99.90
54429;DHT22;40337;52.978;6.310;2024-02-14T08:38:22;11.80;99.90
54429;DHT22;40337;52.978;6.310;2024-02-14T08:40:48;11.90;99.90
54429;DHT22;40337;52.978;6.310;2024-02-14T08:43:14;11.90;99.90
54429;DHT22;40337;52.978;6.310;2024-02-14T08:45:40;11.90;99.90
54429;DHT22;40337;52.978;6.310;2024-02-14T08:48:07;12.00;99.90
54429;DHT22;40337;52.978;6.310;2024-02-14T08:50:32;11.90;99.90
54429;DHT22;40337;52.978;6.310;2024-02-14T08:52:58;12.00;99.90
54429;DHT22;40337;52.978;6.310;2024-02-14T08:55:23;12.00;99.90
54429;DHT22;40337;52.978;6.310;2024-02-14T08:57:49;12.00;99.90
54429;DHT22;40337;52.978;6.310;2024-02-14T09:00:15;12.00;99.90
54429;DHT22;40337;52.978;6.310;2024-02-14T09:02:48;12.00;99.90
54429;DHT22;40337;52.978;6.310;2024-02-14T09:05:14;12.00;99.90
54429;DHT22;40337;52.978;6.310;2024-02-14T09:07:39;12.10;99.90
54429;DHT22;40337;52.978;6.310;2024-02-14T09:10:07;12.10;99.90
54429;DHT22;40337;52.978;6.310;2024-02-14T09:12:32;12.10;99.90
54429;DHT22;40337;52.978;6.310;2024-02-14T09:14:59;12.10;99.90
54429;DHT22;40337;52.978;6.310;2024-02-14T09:17:24;12.20;99.90
54429;DHT22;40337;52.978;6.310;2024-02-14T09:19:50;12.20;99.90
54429;DHT22;40337;52.978;6.310;2024-02-14T09:22:17;12.30;99.90
54429;DHT22;40337;52.978;6.310;2024-02-14T09:24:47;12.30;99.90
54429;DHT22;40337;52.978;6.310;2024-02-14T09:27:13;12.30;99.90
54429;DHT22;40337;52.978;6.310;2024-02-14T09:29:39;12.30;99.90
54429;DHT22;40337;52.978;6.310;2024-02-14T09:32:05;12.40;99.90
54429;DHT22;40337;52.978;6.310;2024-02-14T09:34:30;12.40;99.90
54429;DHT22;40337;52.978;6.310;2024-02-14T09:36:56;12.40;99.90
54429;DHT22;40337;52.978;6.310;2024-02-14T09:39:24;12.40;99.90
54429;DHT22;40337;52.978;6.310;2024-02-14T09:41:55;12.40;99.90
54429;DHT22;40337;52.978;6.310;2024-02-14T09:44:27;12.50;99.90
54429;DHT22;40337;52.978;6.310;2024-02-14T09:46:54;12.50;99.90
54429;DHT22;40337;52.978;6.310;2024-02-14T09:49:21;12.50;99.90
54429;DHT22;40337;52.978;6.310;2024-02-14T09:51:48;12.50;99.90
54429;DHT22;40337;52.978;6.310;2024-02-14T09:54:17;12.60;99.90
54429;DHT22;40337;52.978;6.310;2024-02-14T09:56:51;12.60;99.90
54429;DHT22;40337;52.978;6.310;2024-02-14T09:59:19;12.60;99.90
54429;DHT22;40337;52.978;6.310;2024-02-14T10:01:46;12.50;99.90
54429;DHT22;40337;52.978;6.310;2024-02-14T10:04:13;12.50;99.90
54429;DHT22;40337;52.978;6.310;2024-02-14T10:06:39;12.60;99.90
54429;DHT22;40337;52.978;6.310;2024-02-14T10:09:04;12.60;99.90
54429;DHT22;40337;52.978;6.310;2024-02-14T10:11:31;12.60;99.90
54429;DHT22;40337;52.978;6.310;2024-02-14T10:13:57;12.70;99.90
54429;DHT22;40337;52.978;6.310;2024-02-14T10:16:28;12.60;99.90
54429;DHT22;40337;52.978;6.310;2024-02-14T10:18:54;12.70;99.90
54429;DHT22;40337;52.978;6.310;2024-02-14T10:21:19;12.70;99.90
54429;DHT22;40337;52.978;6.310;2024-02-14T10:23:47;12.70;99.90
54429;DHT22;40337;52.978;6.310;2024-02-14T10:26:17;12.70;99.90
54429;DHT22;40337;52.978;6.310;2024-02-14T10:28:43;12.60;99.90
54429;DHT22;40337;52.978;6.310;2024-02-14T10:31:12;12.70;99.90
54429;DHT22;40337;52.978;6.310;2024-02-14T10:33:38;12.70;99.90
54429;DHT22;40337;52.978;6.310;2024-02-14T10:36:07;12.70;99.90
54429;DHT22;40337;52.978;6.310;2024-02-14T10:38:34;12.80;99.90
54429;DHT22;40337;52.978;6.310;2024-02-14T10:41:00;12.70;99.90
54429;DHT22;40337;52.978;6.310;2024-02-14T10:43:27;12.80;99.90
54429;DHT22;40337;52.978;6.310;2024-02-14T10:45:54;12.80;99.90
54429;DHT22;40337;52.978;6.310;2024-02-14T10:48:22;12.80;99.90
54429;DHT22;40337;52.978;6.310;2024-02-14T10:50:54;12.90;99.90
54429;DHT22;40337;52.978;6.310;2024-02-14T10:53:22;12.80;99.90
54429;DHT22;40337;52.978;6.310;2024-02-14T10:55:49;12.80;99.90
54429;DHT22;40337;52.978;6.310;2024-02-14T10:58:17;12.90;99.90
54429;DHT22;40337;52.978;6.310;2024-02-14T11:00:44;12.90;99.90
54429;DHT22;40337;52.978;6.310;2024-02-14T11:03:11;12.90;99.90
54429;DHT22;40337;52.978;6.310;2024-02-14T11:05:45;12.90;99.90
54429;DHT22;40337;52.978;6.310;2024-02-14T11:08:14;12.90;99.90
54429;DHT22;40337;52.978;6.310;2024-02-14T11:10:40;12.80;99.90
54429;DHT22;40337;52.978;6.310;2024-02-14T11:13:11;12.80;99.90
54429;DHT22;40337;52.978;6.310;2024-02-14T11:15:39;12.80;99.90
54429;DHT22;40337;52.978;6.310;2024-02-14T11:18:06;12.90;99.90
54429;DHT22;40337;52.978;6.310;2024-02-14T11:20:35;12.80;99.90
54429;DHT22;40337;52.978;6.310;2024-02-14T11:23:06;12.80;99.90
54429;DHT22;40337;52.978;6.310;2024-02-14T11:25:33;12.90;99.90
54429;DHT22;40337;52.978;6.310;2024-02-14T11:28:16;13.00;99.90
54429;DHT22;40337;52.978;6.310;2024-02-14T11:30:43;12.90;99.90
54429;DHT22;40337;52.978;6.310;2024-02-14T11:33:29;12.90;99.90
54429;DHT22;40337;52.978;6.310;2024-02-14T11:35:55;13.00;99.90
54429;DHT22;40337;52.978;6.310;2024-02-14T11:38:23;12.90;99.90
54429;DHT22;40337;52.978;6.310;2024-02-14T11:40:54;13.00;99.90
54429;DHT22;40337;52.978;6.310;2024-02-14T11:43:23;13.00;99.90
54429;DHT22;40337;52.978;6.310;2024-02-14T11:45:49;13.00;99.90
54429;DHT22;40337;52.978;6.310;2024-02-14T11:48:16;13.00;99.90
54429;DHT22;40337;52.978;6.310;2024-02-14T11:50:44;13.00;99.90
54429;DHT22;40337;52.978;6.310;2024-02-14T11:53:14;13.00;99.90
54429;DHT22;40337;52.978;6.310;2024-02-14T11:55:43;13.00;99.90
54429;DHT22;40337;52.978;6.310;2024-02-14T11:58:09;13.00;99.90
54429;DHT22;40337;52.978;6.310;2024-02-14T12:00:47;13.00;99.90
54429;DHT22;40337;52.978;6.310;2024-02-14T12:03:19;13.00;99.90
54429;DHT22;40337;52.978;6.310;2024-02-14T12:05:47;13.00;99.90
54429;DHT22;40337;52.978;6.310;2024-02-14T12:08:14;13.00;99.90
54429;DHT22;40337;52.978;6.310;2024-02-14T12:10:43;13.00;99.90
54429;DHT22;40337;52.978;6.310;2024-02-14T12:13:10;13.10;99.90
54429;DHT22;40337;52.978;6.310;2024-02-14T12:15:44;13.10;99.90
54429;DHT22;40337;52.978;6.310;2024-02-14T12:18:10;13.10;99.90
54429;DHT22;40337;52.978;6.310;2024-02-14T12:20:39;13.10;99.90
54429;DHT22;40337;52.978;6.310;2024-02-14T12:23:06;13.10;99.90
54429;DHT22;40337;52.978;6.310;2024-02-14T12:25:32;13.10;99.90
54429;DHT22;40337;52.978;6.310;2024-02-14T12:27:58;13.20;99.90
54429;DHT22;40337;52.978;6.310;2024-02-14T12:30:47;13.10;99.90
54429;DHT22;40337;52.978;6.310;2024-02-14T12:33:15;13.10;99.90
54429;DHT22;40337;52.978;6.310;2024-02-14T12:35:45;13.10;99.90
54429;DHT22;40337;52.978;6.310;2024-02-14T12:38:12;13.10;99.90
54429;DHT22;40337;52.978;6.310;2024-02-14T12:40:39;13.10;99.90
54429;DHT22;40337;52.978;6.310;2024-02-14T12:43:10;13.10;99.90
54429;DHT22;40337;52.978;6.310;2024-02-14T12:45:36;13.10;99.90
54429;DHT22;40337;52.978;6.310;2024-02-14T12:48:02;13.10;99.90
54429;DHT22;40337;52.978;6.310;2024-02-14T12:50:29;13.20;99.90
54429;DHT22;40337;52.978;6.310;2024-02-14T12:52:55;13.10;99.90
54429;DHT22;40337;52.978;6.310;2024-02-14T12:55:21;13.10;99.90
54429;DHT22;40337;52.978;6.310;2024-02-14T12:57:49;13.20;99.90
54429;DHT22;40337;52.978;6.310;2024-02-14T13:00:15;13.20;99.90
54429;DHT22;40337;52.978;6.310;2024-02-14T13:02:40;13.20;99.90
54429;DHT22;40337;52.978;6.310;2024-02-14T13:05:06;13.20;99.90
54429;DHT22;40337;52.978;6.310;2024-02-14T13:07:35;13.20;99.90
54429;DHT22;40337;52.978;6.310;2024-02-14T13:10:02;13.20;99.90
54429;DHT22;40337;52.978;6.310;2024-02-14T13:12:28;13.20;99.90
54429;DHT22;40337;52.978;6.310;2024-02-14T13:14:54;13.20;99.90
54429;DHT22;40337;52.978;6.310;2024-02-14T13:17:20;13.10;99.90
54429;DHT22;40337;52.978;6.310;2024-02-14T13:19:46;13.10;99.90
54429;DHT22;40337;52.978;6.310;2024-02-14T13:22:15;13.10;99.90
54429;DHT22;40337;52.978;6.310;2024-02-14T13:24:40;13.10;99.90
54429;DHT22;40337;52.978;6.310;2024-02-14T13:27:06;13.00;99.90
54429;DHT22;40337;52.978;6.310;2024-02-14T13:29:32;13.00;99.90
54429;DHT22;40337;52.978;6.310;2024-02-14T13:31:59;13.00;99.90
54429;DHT22;40337;52.978;6.310;2024-02-14T13:34:27;13.00;99.90
54429;DHT22;40337;52.978;6.310;2024-02-14T13:36:52;13.00;99.90
54429;DHT22;40337;52.978;6.310;2024-02-14T13:39:18;13.00;99.90
54429;DHT22;40337;52.978;6.310;2024-02-14T13:41:44;13.00;99.90
54429;DHT22;40337;52.978;6.310;2024-02-14T13:44:10;13.10;99.90
54429;DHT22;40337;52.978;6.310;2024-02-14T13:46:44;13.10;99.90
54429;DHT22;40337;52.978;6.310;2024-02-14T13:49:10;13.10;99.90
54429;DHT22;40337;52.978;6.310;2024-02-14T13:51:37;13.10;99.90
54429;DHT22;40337;52.978;6.310;2024-02-14T13:54:03;13.10;99.90
54429;DHT22;40337;52.978;6.310;2024-02-14T13:56:29;13.10;99.90
54429;DHT22;40337;52.978;6.310;2024-02-14T13:58:55;13.10;99.90
54429;DHT22;40337;52.978;6.310;2024-02-14T14:01:20;13.10;99.90
54429;DHT22;40337;52.978;6.310;2024-02-14T14:03:46;13.10;99.90
54429;DHT22;40337;52.978;6.310;2024-02-14T14:06:13;13.10;99.90
54429;DHT22;40337;52.978;6.310;2024-02-14T14:08:39;13.10;99.90
54429;DHT22;40337;52.978;6.310;2024-02-14T14:11:05;13.10;99.90
54429;DHT22;40337;52.978;6.310;2024-02-14T14:13:31;13.10;99.90
54429;DHT22;40337;52.978;6.310;2024-02-14T14:16:02;13.20;99.90
54429;DHT22;40337;52.978;6.310;2024-02-14T14:18:30;13.10;99.90
54429;DHT22;40337;52.978;6.310;2024-02-14T14:20:56;13.20;99.90
54429;DHT22;40337;52.978;6.310;2024-02-14T14:23:22;13.20;99.90
54429;DHT22;40337;52.978;6.310;2024-02-14T14:25:47;13.30;99.90
54429;DHT22;40337;52.978;6.310;2024-02-14T14:28:13;13.20;99.90
54429;DHT22;40337;52.978;6.310;2024-02-14T14:30:40;13.30;99.90
54429;DHT22;40337;52.978;6.310;2024-02-14T14:33:05;13.30;99.90
54429;DHT22;40337;52.978;6.310;2024-02-14T14:35:33;13.20;99.90
54429;DHT22;40337;52.978;6.310;2024-02-14T14:37:59;13.20;99.90
54429;DHT22;40337;52.978;6.310;2024-02-14T14:40:25;13.30;99.90
54429;DHT22;40337;52.978;6.310;2024-02-14T14:42:52;13.20;99.90
54429;DHT22;40337;52.978;6.310;2024-02-14T14:45:18;13.30;99.90
54429;DHT22;40337;52.978;6.310;2024-02-14T14:47:44;13.30;99.90
54429;DHT22;40337;52.978;6.310;2024-02-14T14:50:10;13.30;99.90
54429;DHT22;40337;52.978;6.310;2024-02-14T14:52:36;13.30;99.90
54429;DHT22;40337;52.978;6.310;2024-02-14T14:55:04;13.30;99.90
54429;DHT22;40337;52.978;6.310;2024-02-14T14:57:30;13.30;99.90
54429;DHT22;40337;52.978;6.310;2024-02-14T14:59:55;13.30;99.90
54429;DHT22;40337;52.978;6.310;2024-02-14T15:02:21;13.30;99.90
54429;DHT22;40337;52.978;6.310;2024-02-14T15:04:51;13.40;99.90
54429;DHT22;40337;52.978;6.310;2024-02-14T15:07:16;13.40;99.90
54429;DHT22;40337;52.978;6.310;2024-02-14T15:09:45;13.40;99.90
54429;DHT22;40337;52.978;6.310;2024-02-14T15:12:11;13.30;99.90
54429;DHT22;40337;52.978;6.310;2024-02-14T15:14:37;13.30;99.90
54429;DHT22;40337;52.978;6.310;2024-02-14T15:17:03;13.30;99.90
54429;DHT22;40337;52.978;6.310;2024-02-14T15:19:30;13.30;99.90
54429;DHT22;40337;52.978;6.310;2024-02-14T15:21:56;13.30;99.90
54429;DHT22;40337;52.978;6.310;2024-02-14T15:24:23;13.30;99.90
54429;DHT22;40337;52.978;6.310;2024-02-14T15:26:49;13.30;99.90
54429;DHT22;40337;52.978;6.310;2024-02-14T15:29:18;13.30;99.90
54429;DHT22;40337;52.978;6.310;2024-02-14T15:32:02;13.20;99.90